Weather History for McGregor, MN

Change the Weather History Date:

Saturday, February 23, 2013

  Actual Average (KAIT) Record (KAIT)
Temperature  
Mean Temperature 23 °F -  
Max Temperature 32 °F 29 °F 53 °F (1984)
Min Temperature 14 °F 11 °F -18 °F (1963)
Degree Days  
Heating Degree Days 42    
Moisture  
Dew Point 21 °F    
Average Humidity 86    
Maximum Humidity 100    
Minimum Humidity 69    
Precipitation  
Precipitation 0.00 in - - ()
Sea Level Pressure  
Sea Level Pressure 29.83 in    
Wind  
Wind Speed 3 mph (NW)    
Max Wind Speed 7 mph    
Max Gust Speed -    
Visibility 10 miles    
Events      
Averages and records for this station are not official NWS values.
T = Trace of Precipitation, MM = Missing Value Source: NWS Daily Summary

Daily Weather History Graph

Daily Weather History Graph

Search for Another Location

Airport:

Trip Planner

Search our weather history database for the weather conditions in past years. The results will help you decide how hot, cold, wet, or windy it might be!

Date:

Astronomy

Feb. 23, 2013 Rise Set
Actual Time 7:03 AM CST 5:50 PM CST
Civil Twilight 6:32 AM CST 6:21 PM CST
Nautical Twilight 5:57 AM CST 6:56 PM CST
Astronomical Twilight 5:22 AM CST 7:31 PM CST
Moon 3:58 PM CST (2/23) 5:30 AM CST (2/23)
Length of Visible Light 11h 48m
Length of Day
10h 47m
Waxing Gibbous, 95% of the Moon is Illuminated
Feb 23
Waxing Gibbous
Feb 25
Full
Mar 4
Last Quarter
Mar 11
New
Mar 19
First Quarter

Hourly Weather History & Observations

Time (CST) Temp. Windchill Dew Point Humidity Pressure Visibility Wind Dir Wind Speed Gust Speed Precip Events Conditions
12:13 AM 24.8 °F 20.5 °F 23.0 °F 93% 29.82 in 10.0 mi North 3.5 mph - N/A   Overcast
12:33 AM 24.8 °F 20.5 °F 23.0 °F 93% 29.82 in 7.0 mi North 3.5 mph - N/A   Overcast
12:52 AM 24.8 °F - 23.0 °F 93% 29.81 in 10.0 mi Calm Calm - N/A   Overcast
1:13 AM 24.8 °F 20.5 °F 23.0 °F 93% 29.81 in 10.0 mi NW 3.5 mph - N/A   Overcast
1:32 AM 23.0 °F - 21.2 °F 93% 29.81 in 10.0 mi Calm Calm - N/A   Overcast
1:52 AM 21.2 °F 16.4 °F 21.2 °F 100% 29.81 in 10.0 mi NNW 3.5 mph - N/A   Mostly Cloudy
2:12 AM 21.2 °F 16.4 °F 21.2 °F 100% 29.81 in 7.0 mi NNW 3.5 mph - N/A   Overcast
2:33 AM 23.0 °F 18.4 °F 21.2 °F 93% 29.81 in 10.0 mi NW 3.5 mph - N/A   Overcast
2:52 AM 23.0 °F 18.4 °F 21.2 °F 93% 29.80 in 7.0 mi NW 3.5 mph - N/A   Scattered Clouds
3:13 AM 21.2 °F - 21.2 °F 100% 29.80 in 7.0 mi Calm Calm - N/A   Scattered Clouds
3:30 AM 21.2 °F 16.4 °F 19.4 °F 93% 29.80 in 7.0 mi NW 3.5 mph - N/A   Mostly Cloudy
3:53 AM 21.2 °F 14.9 °F 19.4 °F 93% 29.79 in 10.0 mi NNW 4.6 mph - N/A   Overcast
4:12 AM 21.2 °F 16.4 °F 19.4 °F 93% 29.80 in 10.0 mi North 3.5 mph - N/A   Overcast
4:33 AM 21.2 °F 14.9 °F 21.2 °F 100% 29.79 in 10.0 mi NNW 4.6 mph - N/A   Overcast
4:52 AM 21.2 °F 16.4 °F 21.2 °F 100% 29.79 in 7.0 mi NW 3.5 mph - N/A   Overcast
5:11 AM 21.2 °F 16.4 °F 21.2 °F 100% 29.79 in 10.0 mi NW 3.5 mph - N/A   Mostly Cloudy
5:30 AM 21.2 °F 14.9 °F 21.2 °F 100% 29.80 in 10.0 mi NW 4.6 mph - N/A   Mostly Cloudy
5:53 AM 21.2 °F - 19.4 °F 93% 29.80 in 10.0 mi Calm Calm - N/A   Overcast
6:13 AM 19.4 °F - 19.4 °F 100% 29.80 in 10.0 mi Calm Calm - N/A   Overcast
6:30 AM 21.2 °F - 19.4 °F 93% 29.80 in 10.0 mi Calm Calm - N/A   Overcast
6:52 AM 19.4 °F - 17.6 °F 93% 29.80 in 10.0 mi Calm Calm - N/A   Mostly Cloudy
7:13 AM 17.6 °F - 17.6 °F 100% 29.81 in 10.0 mi Calm Calm - N/A   Scattered Clouds
7:31 AM 19.4 °F 12.8 °F 17.6 °F 93% 29.80 in 10.0 mi WNW 4.6 mph - N/A   Clear
7:53 AM 19.4 °F 14.3 °F 19.4 °F 100% 29.81 in 10.0 mi WNW 3.5 mph - N/A   Mostly Cloudy
8:13 AM 21.2 °F 16.4 °F 19.4 °F 93% 29.80 in 10.0 mi WNW 3.5 mph - N/A   Overcast
8:33 AM 21.2 °F 14.9 °F 19.4 °F 93% 29.80 in 10.0 mi WNW 4.6 mph - N/A   Overcast
8:50 AM 21.2 °F 14.9 °F 21.2 °F 100% 29.81 in 10.0 mi WNW 4.6 mph - N/A   Overcast
9:12 AM 23.0 °F 18.4 °F 21.2 °F 93% 29.81 in 10.0 mi NW 3.5 mph - N/A   Overcast
9:32 AM 23.0 °F 18.4 °F 23.0 °F 100% 29.82 in 10.0 mi WNW 3.5 mph - N/A   Overcast
9:53 AM 24.8 °F 20.5 °F 23.0 °F 93% 29.82 in 10.0 mi WNW 3.5 mph - N/A   Overcast
10:13 AM 24.8 °F 20.5 °F 23.0 °F 93% 29.82 in 10.0 mi WNW 3.5 mph - N/A   Overcast
10:33 AM 26.6 °F 20.0 °F 23.0 °F 86% 29.83 in 10.0 mi WNW 5.8 mph - N/A   Overcast
10:53 AM 26.6 °F 22.6 °F 23.0 °F 86% 29.82 in 10.0 mi WNW 3.5 mph - N/A   Mostly Cloudy
11:13 AM 28.4 °F 23.3 °F 23.0 °F 80% 29.82 in 10.0 mi NW 4.6 mph - N/A   Scattered Clouds
11:33 AM 28.4 °F 22.2 °F 23.0 °F 80% 29.82 in 10.0 mi NNW 5.8 mph - N/A   Scattered Clouds
11:53 AM 30.2 °F 23.4 °F 23.0 °F 75% 29.82 in 10.0 mi WNW 6.9 mph - N/A   Mostly Cloudy
12:13 PM 30.2 °F 23.4 °F 23.0 °F 75% 29.82 in 10.0 mi WNW 6.9 mph - N/A   Mostly Cloudy
12:32 PM 32.0 °F 25.6 °F 23.0 °F 69% 29.82 in 10.0 mi WNW 6.9 mph - N/A   Mostly Cloudy
12:49 PM 32.0 °F 27.5 °F 23.0 °F 69% 29.81 in 10.0 mi WNW 4.6 mph - N/A   Mostly Cloudy
1:12 PM 32.0 °F 27.5 °F 23.0 °F 69% 29.81 in 10.0 mi NW 4.6 mph - N/A   Overcast
1:32 PM 32.0 °F 28.7 °F 23.0 °F 69% 29.80 in 10.0 mi NW 3.5 mph - N/A   Overcast
1:51 PM 32.0 °F 25.6 °F 23.0 °F 69% 29.80 in 10.0 mi NW 6.9 mph - N/A   Overcast
2:12 PM 32.0 °F 26.4 °F 23.0 °F 69% 29.81 in 10.0 mi NNW 5.8 mph - N/A   Overcast
2:32 PM 32.0 °F 25.6 °F 23.0 °F 69% 29.81 in 10.0 mi NW 6.9 mph - N/A   Overcast
2:51 PM 32.0 °F 26.4 °F 23.0 °F 69% 29.81 in 10.0 mi NNW 5.8 mph - N/A   Overcast
3:12 PM 32.0 °F 26.4 °F 23.0 °F 69% 29.81 in 10.0 mi NW 5.8 mph - N/A   Overcast
3:32 PM 32.0 °F 26.4 °F 23.0 °F 69% 29.81 in 10.0 mi NW 5.8 mph - N/A   Overcast
3:53 PM 32.0 °F 28.7 °F 23.0 °F 69% 29.81 in 10.0 mi WNW 3.5 mph - N/A   Overcast
4:13 PM 32.0 °F 26.4 °F 23.0 °F 69% 29.82 in 10.0 mi NW 5.8 mph - N/A   Overcast
4:33 PM 30.2 °F 23.4 °F 23.0 °F 75% 29.82 in 10.0 mi NW 6.9 mph - N/A   Overcast
4:52 PM 30.2 °F 23.4 °F 23.0 °F 75% 29.82 in 10.0 mi NW 6.9 mph - N/A   Overcast
5:13 PM 30.2 °F 24.3 °F 23.0 °F 75% 29.82 in 10.0 mi NW 5.8 mph - N/A   Overcast
5:33 PM 30.2 °F 25.4 °F 23.0 °F 75% 29.83 in 10.0 mi NW 4.6 mph - N/A   Overcast
5:53 PM 28.4 °F 23.3 °F 23.0 °F 80% 29.84 in 10.0 mi WNW 4.6 mph - N/A   Overcast
6:13 PM 28.4 °F 21.2 °F 23.0 °F 80% 29.85 in 10.0 mi NNW 6.9 mph - N/A   Overcast
6:32 PM 28.4 °F 22.2 °F 23.0 °F 80% 29.85 in 10.0 mi NNW 5.8 mph - N/A   Overcast
6:52 PM 28.4 °F 24.6 °F 23.0 °F 80% 29.86 in 10.0 mi NNW 3.5 mph - N/A   Overcast
7:11 PM 28.4 °F 24.6 °F 21.2 °F 74% 29.87 in 10.0 mi NW 3.5 mph - N/A   Overcast
7:32 PM 28.4 °F 23.3 °F 21.2 °F 74% 29.87 in 10.0 mi WNW 4.6 mph - N/A   Overcast
7:52 PM 28.4 °F - 21.2 °F 74% 29.87 in 10.0 mi Calm Calm - N/A   Overcast
8:12 PM 26.6 °F 22.6 °F 21.2 °F 80% 29.88 in 10.0 mi NW 3.5 mph - N/A   Overcast
8:32 PM 26.6 °F 22.6 °F 21.2 °F 80% 29.88 in 10.0 mi West 3.5 mph - N/A   Scattered Clouds
8:52 PM 26.6 °F - 21.2 °F 80% 29.88 in 10.0 mi Calm Calm - N/A   Clear
9:11 PM 24.8 °F 20.5 °F 21.2 °F 86% 29.87 in 10.0 mi West 3.5 mph - N/A   Scattered Clouds
9:32 PM 23.0 °F 18.4 °F 21.2 °F 93% 29.87 in 10.0 mi West 3.5 mph - N/A   Clear
9:53 PM 23.0 °F - 21.2 °F 93% 29.88 in 10.0 mi Calm Calm - N/A   Clear
10:12 PM 21.2 °F - 19.4 °F 93% 29.89 in 10.0 mi Calm Calm - N/A   Clear
10:53 PM 19.4 °F - 19.4 °F 100% 29.89 in 10.0 mi Calm Calm - N/A   Clear
11:13 PM 17.6 °F - 14.0 °F 86% 29.90 in 10.0 mi Calm Calm - N/A   Clear
11:33 PM 14.0 °F - 14.0 °F 100% 29.90 in 10.0 mi Calm Calm - N/A   Clear
11:52 PM 17.6 °F - 17.6 °F 100% 29.91 in 10.0 mi Calm Calm - N/A   Clear